createdAt,value
2022-10-13T00:01:34.583Z,15.45
2022-10-13T00:04:02.288Z,15.52
2022-10-13T00:06:29.893Z,15.58
2022-10-13T00:08:59.460Z,15.44
2022-10-13T00:11:27.840Z,14.95
2022-10-13T00:13:56.505Z,15.40
2022-10-13T00:16:24.183Z,15.72
2022-10-13T00:18:54.376Z,15.75
2022-10-13T00:21:23.926Z,15.80
2022-10-13T00:23:51.588Z,15.83
2022-10-13T00:26:19.237Z,15.88
2022-10-13T00:28:52.010Z,15.90
2022-10-13T00:31:21.038Z,15.12
2022-10-13T00:33:49.222Z,15.79
2022-10-13T00:36:18.275Z,16.00
2022-10-13T00:38:46.060Z,15.72
2022-10-13T00:41:13.891Z,15.29
2022-10-13T00:43:50.657Z,15.69
2022-10-13T00:46:18.346Z,15.96
2022-10-13T00:48:45.963Z,15.94
2022-10-13T00:51:15.369Z,15.98
2022-10-13T00:53:44.326Z,15.87
2022-10-13T00:56:12.422Z,16.01
2022-10-13T00:58:40.036Z,15.57
2022-10-13T01:01:07.993Z,15.95
2022-10-13T01:03:35.804Z,15.97
2022-10-13T01:06:04.123Z,15.96
2022-10-13T01:08:31.715Z,15.97
2022-10-13T01:11:07.731Z,15.78
2022-10-13T01:13:38.478Z,16.00
2022-10-13T01:16:10.446Z,15.97
2022-10-13T01:18:40.514Z,15.85
2022-10-13T01:21:13.345Z,15.27
2022-10-13T01:23:56.975Z,15.78
2022-10-13T01:27:06.718Z,15.68
2022-10-13T01:30:03.535Z,15.98
2022-10-13T01:32:32.072Z,15.97
2022-10-13T01:35:01.495Z,15.59
2022-10-13T01:37:31.113Z,15.74
2022-10-13T01:40:01.977Z,16.01
2022-10-13T01:42:32.648Z,15.98
2022-10-13T01:45:02.686Z,15.79
2022-10-13T01:47:31.133Z,15.97
2022-10-13T01:49:58.965Z,15.94
2022-10-13T01:52:38.949Z,15.98
2022-10-13T01:55:14.895Z,16.01
2022-10-13T01:57:43.383Z,15.90
2022-10-13T02:00:19.834Z,15.86
2022-10-13T02:02:52.945Z,16.05
2022-10-13T02:05:24.892Z,16.07
2022-10-13T02:07:55.989Z,15.55
2022-10-13T02:10:25.132Z,15.61
2022-10-13T02:12:54.471Z,15.70
2022-10-13T02:15:24.596Z,15.80
2022-10-13T02:17:52.550Z,15.88
2022-10-13T02:20:20.687Z,15.91
2022-10-13T02:22:49.969Z,16.09
2022-10-13T02:25:18.773Z,16.21
2022-10-13T02:27:46.453Z,16.44
2022-10-13T02:30:22.715Z,16.47
2022-10-13T02:32:51.304Z,16.50
2022-10-13T02:35:19.027Z,16.53
2022-10-13T02:37:47.034Z,16.54
2022-10-13T02:40:14.962Z,16.54
2022-10-13T02:42:42.659Z,16.44
2022-10-13T02:45:11.531Z,16.49
2022-10-13T02:47:40.730Z,16.49
2022-10-13T02:50:08.901Z,16.50
2022-10-13T02:52:36.538Z,16.51
2022-10-13T02:55:04.941Z,16.14
2022-10-13T02:57:32.596Z,16.55
2022-10-13T03:00:00.205Z,16.55
2022-10-13T03:02:27.819Z,16.10
2022-10-13T03:04:56.837Z,16.56
2022-10-13T03:07:24.397Z,16.58
2022-10-13T03:09:52.380Z,16.57
2022-10-13T03:12:20.168Z,16.41
2022-10-13T03:14:48.166Z,16.34
2022-10-13T03:17:15.906Z,16.52
2022-10-13T03:19:43.551Z,16.51
2022-10-13T03:22:14.615Z,16.29
2022-10-13T03:24:42.252Z,16.48
2022-10-13T03:27:09.901Z,16.47
2022-10-13T03:29:37.834Z,16.47
2022-10-13T03:32:05.715Z,16.44
2022-10-13T03:34:33.571Z,16.43
2022-10-13T03:37:01.276Z,16.43
2022-10-13T03:39:30.280Z,16.44
2022-10-13T03:41:57.908Z,16.44
2022-10-13T03:44:25.524Z,16.33
2022-10-13T03:46:53.205Z,16.41
2022-10-13T03:49:20.772Z,16.12
2022-10-13T03:51:48.481Z,16.17
2022-10-13T03:54:16.102Z,15.83
2022-10-13T03:56:45.159Z,16.02
2022-10-13T03:59:13.157Z,15.96
2022-10-13T04:01:40.936Z,16.13
2022-10-13T04:04:10.059Z,16.03
2022-10-13T04:06:37.816Z,16.18
2022-10-13T04:09:05.413Z,16.08
2022-10-13T04:11:34.120Z,16.19
2022-10-13T04:14:03.147Z,15.94
2022-10-13T04:16:31.486Z,16.23
2022-10-13T04:19:00.128Z,16.12
2022-10-13T04:21:28.010Z,16.22
2022-10-13T04:23:57.016Z,16.14
2022-10-13T04:26:25.792Z,15.98
2022-10-13T04:28:53.982Z,16.10
2022-10-13T04:34:08.661Z,15.38
2022-10-13T04:36:39.282Z,13.88
2022-10-13T04:39:09.110Z,15.24
2022-10-13T04:41:39.286Z,13.47
2022-10-13T04:44:11.239Z,14.80
2022-10-13T04:46:43.042Z,15.02
2022-10-13T04:49:12.846Z,15.04
2022-10-13T04:51:42.398Z,13.66
2022-10-13T04:54:11.188Z,16.30
2022-10-13T04:56:38.946Z,16.33
2022-10-13T04:59:07.822Z,15.79
2022-10-13T05:01:36.198Z,14.54
2022-10-13T05:04:04.393Z,13.64
2022-10-13T05:06:35.074Z,15.72
2022-10-13T05:09:02.825Z,13.57
2022-10-13T05:11:30.747Z,16.44
2022-10-13T05:13:58.862Z,14.57
2022-10-13T05:16:26.845Z,14.79
2022-10-13T05:18:55.408Z,15.85
2022-10-13T05:21:23.993Z,15.18
2022-10-13T05:23:54.209Z,15.48
2022-10-13T05:26:22.324Z,14.83
2022-10-13T05:28:50.316Z,16.28
2022-10-13T05:31:19.040Z,15.52
2022-10-13T05:33:46.777Z,15.43
2022-10-13T05:36:15.837Z,16.45
2022-10-13T05:38:43.746Z,15.03
2022-10-13T05:41:13.928Z,14.74
2022-10-13T05:43:42.476Z,14.41
2022-10-13T05:46:10.320Z,15.30
2022-10-13T05:48:38.264Z,15.91
2022-10-13T05:51:07.748Z,13.53
2022-10-13T05:53:36.855Z,15.16
2022-10-13T05:56:06.601Z,16.19
2022-10-13T05:58:35.950Z,13.93
2022-10-13T06:01:04.104Z,14.45
2022-10-13T06:03:32.028Z,16.70
2022-10-13T06:06:00.004Z,14.35
2022-10-13T06:08:28.009Z,15.23
2022-10-13T06:10:56.039Z,16.68
2022-10-13T06:13:23.755Z,15.72
2022-10-13T06:15:53.060Z,16.35
2022-10-13T06:18:20.724Z,16.34
2022-10-13T06:20:48.640Z,16.44
2022-10-13T06:23:16.472Z,15.52
2022-10-13T06:25:49.884Z,16.69
2022-10-13T06:28:18.810Z,16.08
2022-10-13T06:30:49.373Z,14.66
2022-10-13T06:33:18.701Z,15.72
2022-10-13T06:35:47.530Z,16.05
2022-10-13T06:38:15.441Z,16.74
2022-10-13T06:40:46.109Z,16.56
2022-10-13T06:43:14.322Z,15.41
2022-10-13T06:45:42.266Z,15.88
2022-10-13T06:48:10.164Z,16.61
2022-10-13T06:50:42.784Z,16.74
2022-10-13T06:53:11.082Z,16.86
2022-10-13T06:55:39.788Z,16.92
2022-10-13T06:58:15.956Z,16.77
2022-10-13T07:00:44.001Z,13.47
2022-10-13T07:03:12.179Z,17.05
2022-10-13T07:05:41.287Z,17.08
2022-10-13T07:08:14.537Z,17.09
2022-10-13T07:10:42.215Z,15.41
2022-10-13T07:13:10.118Z,16.36
2022-10-13T07:15:39.358Z,17.10
2022-10-13T07:18:07.461Z,17.26
2022-10-13T07:20:35.212Z,16.38
2022-10-13T07:23:05.730Z,17.37
2022-10-13T07:25:33.777Z,15.48
2022-10-13T07:28:01.884Z,17.65
2022-10-13T07:30:29.662Z,16.58
2022-10-13T07:35:39.665Z,15.61
2022-10-13T07:38:08.984Z,18.09
2022-10-13T07:40:39.288Z,18.31
2022-10-13T07:43:07.429Z,18.98
2022-10-13T07:45:38.370Z,18.63
2022-10-13T07:48:20.115Z,16.47
2022-10-13T07:50:59.190Z,16.80
2022-10-13T07:53:49.803Z,18.52
2022-10-13T07:56:23.570Z,17.15
2022-10-13T07:59:22.789Z,17.00
2022-10-13T08:05:22.283Z,19.34
2022-10-13T08:07:52.383Z,18.66
2022-10-13T08:10:23.810Z,20.01
2022-10-13T08:12:56.666Z,18.42
2022-10-13T08:19:11.245Z,20.34
2022-10-13T08:21:57.560Z,19.89
2022-10-13T08:24:31.843Z,22.33
2022-10-13T08:27:01.274Z,22.13
2022-10-13T08:29:29.257Z,24.51
2022-10-13T08:31:57.153Z,25.75
2022-10-13T08:38:35.200Z,26.73
2022-10-13T08:41:03.126Z,27.65
2022-10-13T08:44:27.927Z,27.16
2022-10-13T08:46:40.963Z,30.48
2022-10-13T08:49:11.650Z,30.16
2022-10-13T08:51:55.219Z,28.33
2022-10-13T08:54:44.986Z,28.17
2022-10-13T08:57:41.425Z,27.14
2022-10-13T09:00:14.183Z,25.88
2022-10-13T09:02:43.231Z,25.71
2022-10-13T09:05:23.540Z,25.49
2022-10-13T09:08:03.184Z,23.04
2022-10-13T09:10:48.126Z,23.23
2022-10-13T09:13:15.912Z,23.54
2022-10-13T09:15:45.598Z,23.92
2022-10-13T09:18:13.878Z,24.23
2022-10-13T09:20:42.999Z,24.37
2022-10-13T09:23:19.113Z,21.92
2022-10-13T09:25:47.888Z,23.60
2022-10-13T09:28:18.524Z,23.74
2022-10-13T09:30:48.182Z,23.36
2022-10-13T09:33:23.839Z,22.37
2022-10-13T09:36:11.045Z,23.89
2022-10-13T09:38:39.717Z,22.69
2022-10-13T09:41:08.534Z,23.97
2022-10-13T09:43:37.821Z,25.12
2022-10-13T09:46:13.429Z,25.78
2022-10-13T09:48:42.573Z,25.40
2022-10-13T09:51:24.016Z,26.09
2022-10-13T09:53:52.658Z,25.43
2022-10-13T09:56:23.647Z,24.89
2022-10-13T09:58:53.444Z,25.13
2022-10-13T10:01:29.754Z,23.03
2022-10-13T10:03:57.880Z,22.74
2022-10-13T10:06:27.837Z,25.07
2022-10-13T10:09:03.270Z,24.51
2022-10-13T10:11:34.801Z,25.18
2022-10-13T10:14:03.747Z,23.17
2022-10-13T10:16:35.639Z,24.97
2022-10-13T10:19:05.488Z,26.68
2022-10-13T10:21:40.449Z,27.09
2022-10-13T10:24:14.470Z,28.29
2022-10-13T10:26:49.588Z,28.85
2022-10-13T10:29:21.080Z,28.55
2022-10-13T10:32:05.661Z,27.69
2022-10-13T10:34:38.432Z,28.53
2022-10-13T10:37:22.848Z,28.41
2022-10-13T10:39:54.548Z,27.90
2022-10-13T10:42:36.693Z,26.83
2022-10-13T10:45:05.016Z,26.93
2022-10-13T10:47:37.449Z,26.57
2022-10-13T10:50:09.250Z,25.01
2022-10-13T10:52:43.823Z,25.96
2022-10-13T10:55:15.691Z,26.48
2022-10-13T10:57:51.678Z,27.54
2022-10-13T11:00:21.106Z,29.32
2022-10-13T11:02:54.188Z,30.00
2022-10-13T11:05:22.228Z,31.16
2022-10-13T11:07:59.373Z,31.18
2022-10-13T11:10:27.536Z,33.84
2022-10-13T11:13:16.763Z,35.52
2022-10-13T11:15:45.568Z,35.98
2022-10-13T11:18:50.649Z,37.22
2022-10-13T11:21:19.703Z,37.64
2022-10-13T11:23:48.333Z,38.11
2022-10-13T11:26:35.899Z,38.94
2022-10-13T11:29:20.356Z,38.24
2022-10-13T11:31:49.623Z,37.49
2022-10-13T11:34:27.955Z,35.50
2022-10-13T11:36:58.814Z,32.66
2022-10-13T11:39:51.360Z,33.67
2022-10-13T11:42:59.277Z,31.97
2022-10-13T11:45:38.366Z,30.86
2022-10-13T11:48:31.191Z,30.00
2022-10-13T11:51:05.607Z,26.52
2022-10-13T11:54:20.865Z,27.28
2022-10-13T11:56:56.910Z,25.62
2022-10-13T11:59:26.901Z,26.95
2022-10-13T12:01:55.961Z,25.30
2022-10-13T12:04:27.171Z,24.02
2022-10-13T12:06:57.199Z,25.38
2022-10-13T12:09:25.089Z,22.43
2022-10-13T12:12:01.955Z,24.76
2022-10-13T12:14:33.343Z,24.48
2022-10-13T12:17:01.519Z,24.51
2022-10-13T12:19:31.429Z,21.59
2022-10-13T12:21:59.952Z,22.75
2022-10-13T12:24:29.808Z,24.10
2022-10-13T12:26:57.780Z,20.64
2022-10-13T12:29:34.967Z,22.77
2022-10-13T12:32:17.713Z,23.59
2022-10-13T12:34:45.801Z,23.16
2022-10-13T12:37:18.919Z,23.01
2022-10-13T12:39:47.071Z,22.51
2022-10-13T12:42:14.885Z,23.09
2022-10-13T12:44:43.916Z,20.93
2022-10-13T12:47:40.345Z,21.46
2022-10-13T12:50:34.898Z,22.78
2022-10-13T12:53:17.218Z,22.53
2022-10-13T12:55:53.238Z,22.36
2022-10-13T12:58:23.204Z,22.46
2022-10-13T13:01:04.692Z,22.61
2022-10-13T13:03:32.882Z,22.62
2022-10-13T13:06:21.449Z,22.63
2022-10-13T13:08:54.021Z,22.40
2022-10-13T13:11:22.931Z,22.56
2022-10-13T13:14:17.516Z,21.85
2022-10-13T13:17:04.381Z,22.60
2022-10-13T13:19:32.865Z,20.92
2022-10-13T13:22:00.716Z,21.53
2022-10-13T13:24:39.256Z,22.88
2022-10-13T13:27:25.652Z,22.71
2022-10-13T13:29:53.774Z,23.01
2022-10-13T13:32:30.885Z,23.17
2022-10-13T13:34:58.534Z,22.50
2022-10-13T13:37:29.268Z,22.46
2022-10-13T13:40:35.482Z,23.27
2022-10-13T13:46:41.065Z,21.82
2022-10-13T13:49:57.753Z,21.75
2022-10-13T14:13:26.182Z,20.70
2022-10-13T14:16:54.066Z,20.15
2022-10-13T14:20:17.740Z,22.19
2022-10-13T14:27:17.386Z,21.67
2022-10-13T14:29:59.972Z,19.09
2022-10-13T15:29:30.920Z,20.57
2022-10-13T15:32:08.296Z,19.69
2022-10-13T15:34:36.550Z,18.56
2022-10-13T15:37:06.576Z,20.56
2022-10-13T15:39:34.208Z,20.42
2022-10-13T15:42:02.001Z,20.49
2022-10-13T15:44:51.068Z,20.11
2022-10-13T15:53:34.292Z,19.15
2022-10-13T15:56:06.703Z,18.98
2022-10-13T16:06:39.843Z,19.33
2022-10-13T16:09:07.653Z,18.47
2022-10-13T16:11:39.782Z,19.15
2022-10-13T16:14:07.896Z,19.27
2022-10-13T16:16:35.768Z,19.07
2022-10-13T16:19:30.874Z,18.53
2022-10-13T16:22:01.725Z,19.12
2022-10-13T16:24:29.954Z,19.83
2022-10-13T16:27:53.484Z,16.97
2022-10-13T16:31:21.586Z,19.72
2022-10-13T16:33:51.672Z,17.99
2022-10-13T16:43:14.008Z,16.68
2022-10-13T16:45:59.159Z,17.62
2022-10-13T16:48:27.941Z,17.33
2022-10-13T16:50:57.170Z,18.95
2022-10-13T16:53:27.518Z,16.83
2022-10-13T16:55:55.330Z,19.27
2022-10-13T16:58:26.350Z,19.01
2022-10-13T17:01:13.833Z,19.01
2022-10-13T17:03:42.405Z,15.88
2022-10-13T17:09:59.706Z,18.62
2022-10-13T17:12:27.394Z,19.05
2022-10-13T17:14:55.393Z,17.95
2022-10-13T17:17:23.410Z,19.08
2022-10-13T17:19:52.300Z,18.48
2022-10-13T17:22:20.595Z,18.59
2022-10-13T17:24:58.062Z,19.14
2022-10-13T17:27:27.574Z,18.47
2022-10-13T17:30:06.288Z,16.84
2022-10-13T17:37:04.090Z,19.10
2022-10-13T17:43:47.853Z,15.94
2022-10-13T17:46:35.491Z,18.93
2022-10-13T17:49:06.019Z,19.07
2022-10-13T17:51:34.146Z,18.63
2022-10-13T17:54:01.848Z,19.17
2022-10-13T17:56:29.880Z,19.20
2022-10-13T17:58:59.597Z,19.24
2022-10-13T18:01:28.248Z,19.12
2022-10-13T18:03:59.910Z,18.00
2022-10-13T18:12:19.591Z,18.13
2022-10-13T18:15:49.701Z,19.43
2022-10-13T18:22:20.530Z,19.44
2022-10-13T18:24:57.239Z,18.30
2022-10-13T18:27:40.552Z,16.63
2022-10-13T18:30:43.990Z,18.24
2022-10-13T18:33:14.998Z,19.36
2022-10-13T18:35:52.381Z,17.10
2022-10-13T18:41:37.416Z,17.84
2022-10-13T18:44:05.187Z,19.31
2022-10-13T18:46:33.506Z,19.29
2022-10-13T18:49:07.115Z,16.40
2022-10-13T18:51:57.875Z,18.01
2022-10-13T18:54:25.858Z,15.92
2022-10-13T18:56:54.387Z,17.48
2022-10-13T18:59:42.791Z,18.03
2022-10-13T19:02:33.988Z,18.38
2022-10-13T19:05:02.115Z,17.47
2022-10-13T19:07:41.556Z,16.51
2022-10-13T19:14:51.935Z,16.54
2022-10-13T19:25:27.368Z,17.02
2022-10-13T19:31:49.460Z,18.80
2022-10-13T19:34:17.327Z,17.01
2022-10-13T19:36:46.201Z,18.57
2022-10-13T19:39:53.139Z,19.14
2022-10-13T19:42:22.594Z,17.31
2022-10-13T19:44:50.742Z,18.65
2022-10-13T19:47:24.669Z,16.67
2022-10-13T19:49:53.067Z,17.55
2022-10-13T19:52:24.862Z,16.86
2022-10-13T19:54:52.961Z,16.92
2022-10-13T19:58:14.653Z,16.89
2022-10-13T20:00:42.748Z,16.45
2022-10-13T20:03:10.832Z,17.17
2022-10-13T20:06:28.628Z,18.35
2022-10-13T20:09:51.381Z,16.13
2022-10-13T20:12:26.208Z,18.20
2022-10-13T20:21:28.896Z,18.79
2022-10-13T20:23:56.833Z,17.05
2022-10-13T20:26:24.936Z,15.76
2022-10-13T20:29:34.702Z,15.76
2022-10-13T20:32:02.764Z,16.58
2022-10-13T20:34:33.610Z,18.71
2022-10-13T20:37:01.457Z,18.24
2022-10-13T20:39:29.244Z,18.67
2022-10-13T20:42:23.446Z,18.62
2022-10-13T20:49:17.979Z,16.62
2022-10-13T20:51:48.136Z,17.86
2022-10-13T20:54:16.164Z,16.30
2022-10-13T20:56:44.326Z,18.02
2022-10-13T20:59:14.423Z,18.52
2022-10-13T21:01:45.247Z,18.34
2022-10-13T21:04:14.532Z,18.52
2022-10-13T21:06:42.422Z,16.40
2022-10-13T21:09:14.383Z,17.04
2022-10-13T21:11:42.240Z,18.40
2022-10-13T21:14:11.245Z,17.54
2022-10-13T21:16:39.196Z,17.56
2022-10-13T21:19:13.062Z,15.57
2022-10-13T21:21:49.220Z,16.85
2022-10-13T21:24:19.527Z,18.60
2022-10-13T21:26:47.733Z,17.33
2022-10-13T21:29:15.867Z,15.79
2022-10-13T21:31:46.069Z,15.64
2022-10-13T21:34:13.897Z,16.12
2022-10-13T21:36:45.736Z,16.86
2022-10-13T21:39:13.647Z,15.40
2022-10-13T21:41:41.426Z,18.58
2022-10-13T21:44:09.431Z,17.21
2022-10-13T21:46:37.139Z,16.61
2022-10-13T21:49:44.456Z,18.61
2022-10-13T21:58:30.294Z,15.04
2022-10-13T22:00:23.702Z,15.48
2022-10-13T22:14:45.579Z,17.77
2022-10-13T22:21:43.552Z,17.81
2022-10-13T22:25:09.948Z,14.92
2022-10-13T22:28:16.141Z,14.91
2022-10-13T22:31:59.260Z,15.90
2022-10-13T22:34:52.091Z,15.86
2022-10-13T22:38:06.654Z,18.53
2022-10-13T22:41:01.318Z,18.16
2022-10-13T22:45:35.470Z,15.01
2022-10-13T22:48:45.970Z,15.39
2022-10-13T22:52:17.740Z,15.37
2022-10-13T22:54:48.006Z,18.50
2022-10-13T23:00:33.120Z,17.02
2022-10-13T23:06:48.509Z,17.91
2022-10-13T23:10:00.850Z,15.76
2022-10-13T23:12:51.159Z,16.49
2022-10-13T23:15:47.877Z,17.05
2022-10-13T23:18:23.565Z,17.80
2022-10-13T23:24:49.476Z,18.51
2022-10-13T23:32:10.073Z,18.52
2022-10-13T23:34:42.556Z,15.78
2022-10-13T23:37:39.515Z,17.77
2022-10-13T23:40:31.712Z,14.83
2022-10-13T23:44:09.014Z,16.66
2022-10-13T23:48:40.687Z,18.53
2022-10-13T23:58:25.512Z,17.96
